Data for 10/24/2010

Time Sea-Level Adjusted Pressure Absolute Pressure Temperature Relative Humidity Dew Point   
(mb) (inHg) (mb) (inHg) (C) (F) (%) (C) (F)
00:05 1012 29.88 841 24.83 7.4 45.2 79 4 39.3
00:10 1012 29.88 841 24.83 7.1 44.8 80 3.9 39.1
00:15 1012 29.88 841 24.83 7 44.6 81 4 39.1
00:20 1012 29.88 841 24.83 6.8 44.3 81 3.9 39
00:25 1012 29.88 841 24.83 6.7 44 82 3.8 38.8
00:30 1012 29.88 841 24.83 6.5 43.7 82 3.6 38.5
00:35 1012 29.88 841 24.83 6.4 43.5 82 3.6 38.4
00:40 1012 29.88 841 24.83 6.3 43.3 82 3.4 38.1
00:45 1012 29.88 841 24.83 6.3 43.4 81 3.4 38.1
00:50 1012 29.88 841 24.83 6.3 43.4 81 3.3 38
00:55 1012 29.88 841 24.83 6.4 43.5 80 3.2 37.8
01:00 1012 29.88 841 24.83 6.4 43.6 79 3.1 37.5
01:05 1012 29.88 841 24.83 6.7 44 77 2.9 37.1
01:10 1012 29.88 841 24.83 6.8 44.3 76 2.9 37.3
01:15 1012 29.88 841 24.83 6.9 44.4 76 2.9 37.3
01:20 1011 29.85 841 24.83 6.8 44.3 75 2.7 36.9
01:25 1011 29.85 840 24.81 6.8 44.2 76 2.8 37
01:30 1011 29.85 840 24.81 6.7 44.1 75 2.7 36.8
01:35 1011 29.85 840 24.81 6.9 44.4 75 2.7 36.9
01:40 1011 29.85 840 24.81 6.8 44.2 77 3 37.4
01:45 1011 29.85 840 24.81 6.6 43.8 76 2.7 36.9
01:50 1011 29.85 840 24.81 6.5 43.7 77 2.9 37.2
01:55 1011 29.85 840 24.81 6.3 43.4 79 3 37.4
02:00 1011 29.85 840 24.81 6.2 43.2 79 2.8 37.1
02:05 1011 29.85 840 24.81 6.1 42.9 80 2.9 37.3
02:10 1011 29.85 840 24.81 6 42.8 80 2.8 37.1
02:15 1011 29.85 840 24.81 5.8 42.5 81 2.9 37.2
02:20 1011 29.85 840 24.81 5.4 41.7 85 3 37.5
02:25 1011 29.85 840 24.81 4.9 40.9 86 2.8 37
02:30 1011 29.85 840 24.81 4.8 40.6 87 2.7 36.9
02:35 1011 29.85 840 24.81 4.7 40.4 86 2.5 36.5
02:40 1011 29.85 840 24.81 4.8 40.6 86 2.6 36.6
02:45 1010 29.83 840 24.81 4.7 40.5 84 2.3 36.2
02:50 1010 29.83 840 24.81 5 41 82 2.2 36
02:55 1010 29.83 839 24.78 4.7 40.5 85 2.4 36.4
03:00 1010 29.83 839 24.78 4.7 40.5 84 2.3 36.1
03:05 1010 29.83 839 24.78 4.5 40.1 86 2.3 36.2
03:10 1010 29.83 839 24.78 4.3 39.7 86 2.1 35.8
03:15 1010 29.83 839 24.78 4.1 39.4 86 2 35.7
03:20 1010 29.83 839 24.78 4.4 39.9 84 2 35.5
03:25 1010 29.83 839 24.78 4.4 40 84 2 35.6
03:30 1010 29.83 839 24.78 4.4 39.9 85 2.1 35.8
03:35 1010 29.83 839 24.78 4.4 39.9 84 1.9 35.5
03:40 1010 29.83 839 24.78 4.4 39.9 84 1.9 35.4
03:45 1010 29.83 839 24.78 4.3 39.7 84 1.8 35.3
03:50 1010 29.83 839 24.78 4.3 39.7 84 1.9 35.4
03:55 1009 29.8 839 24.78 4.4 40 84 1.9 35.5
04:00 1009 29.8 839 24.78 4.4 39.9 83 1.8 35.2
04:05 1009 29.8 838 24.75 4.5 40.1 82 1.6 35
04:10 1009 29.8 838 24.75 4.6 40.2 82 1.7 35.1
04:15 1009 29.8 838 24.75 4.5 40.2 81 1.5 34.8
04:20 1009 29.8 838 24.75 4.7 40.4 81 1.7 35.1
04:25 1009 29.8 838 24.75 4.4 40 81 1.5 34.7
04:30 1009 29.8 838 24.75 4.4 39.9 81 1.4 34.5
04:35 1009 29.8 838 24.75 4.2 39.6 81 1.3 34.4
04:40 1009 29.8 838 24.75 4.1 39.3 82 1.2 34.2
04:45 1008 29.77 838 24.75 4.2 39.6 81 1.3 34.3
04:50 1008 29.77 838 24.75 4.3 39.7 80 1.2 34.2
04:55 1008 29.77 837 24.72 4.4 40 79 1.2 34.1
05:00 1008 29.77 837 24.72 4.6 40.2 79 1.2 34.2
05:05 1008 29.77 837 24.72 4.6 40.4 78 1.2 34.2
05:10 1008 29.77 837 24.72 4.7 40.4 78 1.1 34
05:15 1008 29.77 837 24.72 4.6 40.3 78 1.1 33.9
05:20 1008 29.77 837 24.72 4.7 40.4 77 0.9 33.7
05:25 1008 29.77 837 24.72 4.7 40.5 77 1 33.9
05:30 1008 29.77 837 24.72 4.8 40.6 76 0.9 33.7
05:35 1008 29.77 837 24.72 4.9 40.9 75 0.9 33.6
05:40 1008 29.77 837 24.72 5.1 41.1 74 0.9 33.6
05:45 1008 29.77 837 24.72 5.2 41.4 73 0.8 33.4
05:50 1008 29.77 837 24.72 5.3 41.5 73 0.9 33.6
05:55 1007 29.74 837 24.72 5.4 41.7 73 0.9 33.7
06:00 1007 29.74 837 24.72 5.3 41.6 73 0.9 33.6
06:05 1007 29.74 837 24.72 5.4 41.8 72 0.8 33.4
06:10 1007 29.74 836 24.69 5.5 41.8 72 0.8 33.5
06:15 1007 29.74 836 24.69 5.5 41.9 72 0.8 33.4
06:20 1007 29.74 836 24.69 5.6 42 70 0.6 33.1
06:25 1007 29.74 836 24.69 5.6 42.1 71 0.7 33.3
06:30 1007 29.74 836 24.69 5.6 42.1 71 0.8 33.4
06:35 1007 29.74 836 24.69 5.6 42.1 69 0.4 32.7
06:40 1007 29.74 836 24.69 5.7 42.3 69 0.5 32.9
06:45 1007 29.74 836 24.69 5.7 42.3 69 0.5 32.8
06:50 1007 29.74 836 24.69 5.9 42.7 67 0.3 32.6
06:55 1007 29.74 836 24.69 5.9 42.7 67 0.4 32.7
07:00 1007 29.74 836 24.69 5.9 42.6 67 0.1 32.3
07:05 1007 29.74 836 24.69 6.1 43 64 -0.1 31.8
07:10 1006 29.71 836 24.69 6.5 43.6 61 -0.6 30.9
07:15 1006 29.71 835 24.66 6.8 44.3 63 0.3 32.5
07:20 1006 29.71 835 24.66 6.8 44.2 60 -0.3 31.5
07:25 1006 29.71 835 24.66 7 44.6 60 -0.2 31.7
07:30 1006 29.71 835 24.66 6.8 44.2 66 0.9 33.6
07:35 1006 29.71 835 24.66 6.1 42.9 68 0.6 33.1
07:40 1006 29.71 835 24.66 5.9 42.6 67 0.3 32.5
07:45 1006 29.71 835 24.66 6 42.8 67 0.3 32.6
07:50 1006 29.71 835 24.66 6 42.9 66 0.1 32.3
07:55 1005 29.68 835 24.66 6.1 43 66 0.3 32.5
08:00 1005 29.68 834 24.63 6 42.9 67 0.3 32.6
08:05 1005 29.68 834 24.63 6.2 43.1 65 0 32.1
08:10 1005 29.68 834 24.63 6.6 43.9 63 0.1 32.1
08:15 1005 29.68 834 24.63 6.8 44.2 59 -0.7 30.8
08:20 1005 29.68 834 24.63 7.4 45.3 61 0.3 32.5
08:25 1004 29.65 834 24.63 7.2 44.9 61 0.3 32.5
08:30 1004 29.65 834 24.63 7.4 45.2 60 0.1 32.2
08:35 1004 29.65 833 24.6 7.8 46 59 0.2 32.4
08:40 1004 29.65 833 24.6 7.9 46.2 59 0.3 32.6
08:45 1004 29.65 834 24.63 8.1 46.5 58 0.4 32.7
08:50 1004 29.65 834 24.63 8.4 47.2 57 0.4 32.8
08:55 1004 29.65 834 24.63 8.5 47.3 58 0.7 33.3
09:00 1004 29.65 833 24.6 8.6 47.5 57 0.7 33.2
09:05 1004 29.65 833 24.6 8.7 47.7 55 0.1 32.2
09:10 1004 29.65 833 24.6 9.4 48.9 55 0.8 33.4
09:15 1004 29.65 833 24.6 9.3 48.8 54 0.6 33.1
09:20 1004 29.65 833 24.6 9.7 49.5 54 1 33.7
09:25 1004 29.65 833 24.6 10 50 52 0.7 33.3
09:30 1004 29.65 833 24.6 10.2 50.4 51 0.7 33.2
09:35 1004 29.65 833 24.6 10.5 50.9 45 -0.9 30.5
09:40 1004 29.65 833 24.6 11.2 52.1 44 -0.4 31.2
09:45 1004 29.65 833 24.6 11.1 51.9 51 1.4 34.5
09:50 1004 29.65 833 24.6 10.4 50.6 52 1 33.8
09:55 1004 29.65 833 24.6 9.9 49.9 54 1 33.8
10:00 1004 29.65 833 24.6 9.9 49.7 53 0.9 33.6
10:05 1003 29.62 833 24.6 10 50 53 0.9 33.7
10:10 1003 29.62 832 24.57 10.2 50.4 52 0.8 33.5
10:15 1003 29.62 832 24.57 10.4 50.7 51 0.7 33.3
10:20 1003 29.62 832 24.57 10.4 50.7 50 0.5 32.9
10:25 1003 29.62 832 24.57 10.4 50.7 49 0.2 32.4
10:30 1003 29.62 832 24.57 10.4 50.8 51 0.8 33.5
10:35 1003 29.62 832 24.57 10.6 51 50 0.6 33.1
10:40 1003 29.62 832 24.57 10.8 51.5 48 0.4 32.8
10:45 1002 29.59 832 24.57 10.8 51.5 49 0.6 33.1
10:50 1003 29.62 832 24.57 10.7 51.3 49 0.5 32.9
10:55 1002 29.59 832 24.57 11 51.8 47 0.2 32.4
11:00 1002 29.59 832 24.57 11.3 52.3 45 -0.1 31.8
11:05 1003 29.62 832 24.57 11.6 52.8 46 0.3 32.5
11:10 1002 29.59 832 24.57 11.7 53 46 0.4 32.8
11:15 1002 29.59 831 24.54 11.7 53 45 0.2 32.4
11:20 1002 29.59 831 24.54 11.6 52.9 46 0.3 32.6
11:25 1002 29.59 831 24.54 11.6 52.9 46 0.4 32.8
11:30 1002 29.59 831 24.54 11.7 53 46 0.4 32.7
11:35 1002 29.59 831 24.54 11.7 53 46 0.4 32.7
11:40 1002 29.59 831 24.54 11.8 53.2 45 0.4 32.7
11:45 1002 29.59 831 24.54 11.8 53.2 46 0.6 33.1
11:50 1001 29.56 831 24.54 11.8 53.2 47 0.9 33.6
11:55 1001 29.56 831 24.54 11.8 53.2 47 0.9 33.6
12:00 1001 29.56 831 24.54 11.7 53 48 1 33.8
12:05 1001 29.56 831 24.54 11.5 52.6 48 0.9 33.6
12:10 1001 29.56 830 24.51 11.4 52.6 48 1 33.8
12:15 1001 29.56 830 24.51 11.5 52.7 49 1.1 34
12:20 1001 29.56 830 24.51 11.6 52.8 48 1 33.8
12:25 1001 29.56 830 24.51 11.6 52.9 48 1.1 33.9
12:30 1001 29.56 830 24.51 11.5 52.8 49 1.2 34.2
12:35 1001 29.56 830 24.51 11.5 52.6 49 1.1 33.9
12:40 1001 29.56 830 24.51 11.4 52.6 49 1.2 34.2
12:45 1001 29.56 830 24.51 11.4 52.6 50 1.3 34.4
12:50 1001 29.56 830 24.51 11.4 52.6 49 1.3 34.3
12:55 1001 29.56 830 24.51 11.4 52.6 50 1.4 34.5
13:00 1001 29.56 830 24.51 11.4 52.6 48 1 33.8
13:05 1000 29.53 830 24.51 11.3 52.3 49 1.1 34
13:10 1000 29.53 829 24.48 11.3 52.4 49 1.1 33.9
13:15 1000 29.53 829 24.48 11.6 52.8 48 1 33.8
13:20 1000 29.53 829 24.48 11.5 52.7 49 1.1 33.9
13:25 1000 29.53 829 24.48 11.5 52.7 48 0.9 33.7
13:30 1000 29.53 829 24.48 11.5 52.7 49 1.2 34.2
13:35 1000 29.53 829 24.48 11.5 52.7 48 1.1 33.9
13:40 1000 29.53 829 24.48 11.5 52.6 49 1.1 34
13:45 1000 29.53 829 24.48 11.4 52.6 49 1.1 34
13:50 1000 29.53 829 24.48 11.4 52.5 50 1.3 34.4
13:55 1000 29.53 829 24.48 11.4 52.6 49 1 33.8
14:00 999 29.5 829 24.48 11.5 52.7 49 1.1 33.9
14:05 999 29.5 829 24.48 11.6 52.9 48 1 33.8
14:10 999 29.5 829 24.48 11.5 52.7 49 1.3 34.3
14:15 999 29.5 828 24.45 11.5 52.7 49 1.1 34
14:20 999 29.5 828 24.45 11.5 52.7 48 1 33.7
14:25 999 29.5 828 24.45 11.7 53 48 1.1 33.9
14:30 999 29.5 828 24.45 11.7 53 48 1.1 34
14:35 999 29.5 828 24.45 11.6 53 49 1.2 34.2
14:40 999 29.5 828 24.45 11.5 52.7 49 1.3 34.3
14:45 998 29.47 828 24.45 11.6 52.9 48 1 33.9
14:50 998 29.47 828 24.45 11.7 53 48 1.2 34.1
14:55 998 29.47 827 24.42 11.7 53 48 1.2 34.2
15:00 998 29.47 827 24.42 11.8 53.2 48 1.2 34.1
15:05 998 29.47 827 24.42 11.8 53.3 48 1.2 34.1
15:10 998 29.47 827 24.42 11.9 53.3 49 1.4 34.5
15:15 998 29.47 827 24.42 11.7 53.1 50 1.6 34.8
15:20 998 29.47 827 24.42 11.6 52.9 50 1.6 34.9
15:25 998 29.47 827 24.42 11.5 52.7 50 1.5 34.7
15:30 998 29.47 827 24.42 11.4 52.6 51 1.7 35.1
15:35 998 29.47 827 24.42 11.3 52.3 52 1.9 35.4
15:40 998 29.47 827 24.42 11.3 52.3 52 1.8 35.3
15:45 998 29.47 827 24.42 11.3 52.4 52 2 35.5
15:50 998 29.47 827 24.42 11.3 52.3 52 2 35.6
15:55 998 29.47 827 24.42 11.3 52.4 53 2.1 35.7
16:00 997 29.44 827 24.42 11.4 52.4 53 2.1 35.8
16:05 997 29.44 827 24.42 11.4 52.5 53 2.2 35.9
16:10 997 29.44 827 24.42 11.4 52.6 52 2.1 35.7
16:15 997 29.44 826 24.39 11.4 52.6 52 2.1 35.8
16:20 997 29.44 826 24.39 11.4 52.5 53 2.1 35.9
16:25 997 29.44 826 24.39 11.4 52.4 53 2.3 36.1
16:30 997 29.44 826 24.39 11.3 52.3 54 2.3 36.2
16:35 997 29.44 826 24.39 11.2 52.2 54 2.4 36.3
16:40 997 29.44 826 24.39 11.2 52.1 55 2.4 36.4
16:45 997 29.44 826 24.39 11.1 52 55 2.4 36.3
16:50 997 29.44 826 24.39 11 51.9 56 2.6 36.7
16:55 997 29.44 826 24.39 11 51.7 58 3 37.4
17:00 997 29.44 826 24.39 10.7 51.3 62 3.7 38.7
17:05 997 29.44 826 24.39 10.4 50.7 65 4.2 39.6
17:10 997 29.44 826 24.39 10.1 50.2 69 4.7 40.5
17:15 997 29.44 826 24.39 9.7 49.5 73 5.1 41.2
17:20 997 29.44 826 24.39 9.5 49.1 75 5.3 41.5
17:25 997 29.44 826 24.39 9.2 48.6 78 5.6 42
17:30 997 29.44 826 24.39 9 48.2 80 5.7 42.2
17:35 997 29.44 826 24.39 8.9 48 80 5.7 42.2
17:40 997 29.44 826 24.39 8.8 47.8 82 5.8 42.4
17:45 997 29.44 826 24.39 8.7 47.6 83 6 42.8
17:50 997 29.44 826 24.39 8.6 47.4 83 5.8 42.4
17:55 997 29.44 826 24.39 8.5 47.4 83 5.9 42.6
18:00 997 29.44 827 24.42 8.4 47.2 85 6 42.9
18:05 997 29.44 827 24.42 8.3 47 85 6 42.8
18:10 998 29.47 827 24.42 7.6 45.6 86 5.4 41.7
18:15 998 29.47 827 24.42 6.8 44.3 88 5 41
18:20 998 29.47 827 24.42 6.6 43.9 88 4.7 40.5
18:25 998 29.47 827 24.42 6.4 43.5 89 4.8 40.6
18:30 998 29.47 827 24.42 6.3 43.3 90 4.7 40.5
18:35 998 29.47 827 24.42 6.1 43 89 4.5 40.1
18:40 998 29.47 828 24.45 5.9 42.6 90 4.4 39.8
18:45 998 29.47 828 24.45 5.7 42.2 90 4.1 39.4
18:50 999 29.5 828 24.45 5.6 42.1 90 4.2 39.5
18:55 998 29.47 828 24.45 5.5 41.9 91 4.1 39.4
19:00 998 29.47 828 24.45 5.5 41.9 90 4 39.1
19:05 998 29.47 828 24.45 5.4 41.7 90 3.9 39
19:10 999 29.5 828 24.45 5.3 41.6 91 3.9 39.1
19:15 999 29.5 828 24.45 5.2 41.4 91 3.9 38.9
19:20 999 29.5 828 24.45 5.2 41.3 91 3.8 38.8
19:25 999 29.5 828 24.45 5.1 41.2 90 3.6 38.5
19:30 999 29.5 828 24.45 5.1 41.1 89 3.4 38.2
19:35 999 29.5 828 24.45 4.9 40.7 90 3.4 38.1
19:40 999 29.5 828 24.45 4.8 40.7 91 3.4 38.1
19:45 999 29.5 829 24.48 4.8 40.7 92 3.7 38.6
19:50 1000 29.53 829 24.48 4.9 40.8 91 3.6 38.4
19:55 999 29.5 829 24.48 4.8 40.7 91 3.5 38.3
20:00 1000 29.53 829 24.48 4.8 40.7 91 3.5 38.3
20:05 1000 29.53 829 24.48 4.8 40.7 90 3.4 38.1
20:10 1000 29.53 829 24.48 4.9 40.8 90 3.3 38
20:15 1000 29.53 829 24.48 4.7 40.5 91 3.4 38.1
20:20 1000 29.53 829 24.48 4.6 40.2 92 3.3 38
20:25 999 29.5 829 24.48 4.5 40 91 3.1 37.5
20:30 999 29.5 828 24.45 4.4 39.9 91 3 37.5
20:35 999 29.5 828 24.45 4.4 39.9 91 3 37.5
20:40 999 29.5 828 24.45 4.5 40.1 91 3.1 37.6
20:45 999 29.5 828 24.45 4.5 40.2 88 2.7 36.9
20:50 999 29.5 828 24.45 4.5 40.2 87 2.6 36.6
20:55 999 29.5 829 24.48 4.4 40 88 2.6 36.7
21:00 999 29.5 829 24.48 4.3 39.7 89 2.6 36.7
21:05 999 29.5 829 24.48 4.2 39.5 87 2.2 35.9
21:10 999 29.5 829 24.48 4 39.2 87 2 35.7
21:15 999 29.5 829 24.48 4.1 39.4 86 2 35.6
21:20 999 29.5 828 24.45 4.1 39.4 87 2.1 35.8
21:25 999 29.5 828 24.45 4.1 39.3 85 1.8 35.3
21:30 999 29.5 828 24.45 4.2 39.6 85 1.9 35.4
21:35 999 29.5 828 24.45 4.3 39.8 86 2.3 36.1
21:40 999 29.5 828 24.45 4.1 39.4 86 2 35.7
21:45 999 29.5 828 24.45 3.9 39.1 88 2.1 35.9
21:50 999 29.5 828 24.45 3.9 39 87 2 35.6
21:55 999 29.5 828 24.45 3.9 39 88 2 35.6
22:00 999 29.5 828 24.45 4 39.2 86 1.9 35.4
22:05 998 29.47 828 24.45 3.9 39 88 2 35.7
22:10 998 29.47 828 24.45 3.8 38.9 87 1.9 35.4
22:15 998 29.47 828 24.45 3.8 38.9 87 1.9 35.5
22:20 999 29.5 828 24.45 3.9 38.9 86 1.8 35.2
22:25 999 29.5 828 24.45 4 39.2 86 1.8 35.2
22:30 999 29.5 828 24.45 3.8 38.9 87 1.9 35.5
22:35 999 29.5 828 24.45 3.8 38.8 87 1.8 35.2
22:40 999 29.5 828 24.45 4 39.3 84 1.6 34.8
22:45 999 29.5 828 24.45 4.4 39.8 81 1.4 34.4
22:50 999 29.5 828 24.45 4.6 40.2 81 1.6 34.8
22:55 999 29.5 828 24.45 4.6 40.2 80 1.4 34.5
23:00 999 29.5 828 24.45 4.5 40.2 80 1.4 34.6
23:05 999 29.5 829 24.48 4.7 40.4 80 1.6 34.8
23:10 999 29.5 829 24.48 4.6 40.2 80 1.5 34.7
23:15 999 29.5 828 24.45 4.6 40.3 78 1.2 34.1
23:20 999 29.5 828 24.45 4.8 40.7 77 1.1 33.9
23:25 999 29.5 828 24.45 4.9 40.9 76 1.1 33.9
23:30 999 29.5 828 24.45 4.9 40.8 78 1.4 34.6
23:35 999 29.5 828 24.45 4.9 40.9 75 0.9 33.7
23:40 999 29.5 828 24.45 5 41 76 1.2 34.2
23:45 999 29.5 829 24.48 5 41 76 1.2 34.2
23:50 999 29.5 829 24.48 4.8 40.6 79 1.4 34.6
23:55 999 29.5 829 24.48 4.5 40.1 78 0.9 33.7
24:00 999 29.5 829 24.48 4.8 40.6 74 0.5 32.9